Flight Track Log - Related Links

Times and Time Zones

All times are in EDT time to prevent confusion due to time zone crossing. See the AFR3552 flight status page for this flight to view local times or setup timezone preferences in your user account.

Time Position Orientation Groundspeed Altitude Reporting Facility
EDT Latitude Longitude Course Direction KTS MPH feet Rate Location/Type
Thu 08:07:37 AM 48.7250 2.3570 253° West 10 12  Level FlightAware ADS-B
Thu 08:07:52 AM 48.7240 2.3560 213° Southwest 11 13 165 Level FlightAware ADS-B
Thu 08:08:47 AM 48.7220 2.3560 180° South 12 14 175 Level FlightAware ADS-B
Thu 08:10:22 AM 48.7200 2.3590 135° Southeast 11 13 227 Level FlightAware ADS-B
Thu 08:10:37 AM 48.7200 2.3600 90° East 6 7 467 Level FlightAware ADS-B
Thu 08:10:58 AM 48.7200 2.3610 90° East 16 18 560 Level FlightAware ADS-B
Thu 08:11:52 AM 48.7280 2.4030 74° East 181 208 700 1,519 Climbing FlightAware ADS-B
Thu 08:12:17 AM 48.7340 2.4360 75° East 179 206 2,000 2,533 Climbing FlightAware ADS-B
Thu 08:12:37 AM 48.7380 2.4580 75° East 192 221 2,600 2,000 Climbing FlightAware ADS-B
Thu 08:13:02 AM 48.7390 2.4910 87° East 191 220 3,500 1,440 Climbing FlightAware ADS-B
Thu 08:13:27 AM 48.7420 2.5350 84° East 239 275 3,800 1,662 Climbing FlightAware ADS-B
Thu 08:14:07 AM 48.7330 2.6000 102° East 269 310 5,300 2,618 Climbing FlightAware ADS-B
Thu 08:14:22 AM 48.7140 2.6130 156° South 279 321 6,200 2,634 Climbing FlightAware ADS-B
Thu 08:14:48 AM 48.6810 2.5890 206° Southwest 302 348 7,100 2,217 Climbing FlightAware ADS-B
Thu 08:15:08 AM 48.6740 2.5480 256° West 306 352 7,900 2,667 Climbing FlightAware ADS-B
Thu 08:15:24 AM 48.6740 2.5140 270° West 306 352 8,700 2,464 Climbing FlightAware ADS-B
Thu 08:16:04 AM 48.6710 2.4290 267° West 324 373 10,200 1,906 Climbing FlightAware ADS-B
Thu 08:16:49 AM 48.6660 2.3200 266° West 363 418 11,400 1,553 Climbing FlightAware ADS-B
Thu 08:17:29 AM 48.6610 2.2120 266° West 398 458 12,400 1,976 Climbing FlightAware ADS-B
Thu 08:18:11 AM 48.6570 2.0890 267° West 410 472 14,100 2,385 Climbing FlightAware ADS-B
Thu 08:18:47 AM 48.6560 1.9880 267° West 417 480 15,500 2,368 Climbing FlightAware ADS-B
Thu 08:18:49 AM 48.6578 1.9824 267° West 1 1 15,600 2,625 Climbing FlightAware UK
Thu 08:19:19 AM 48.6667 1.8944 267° West 408 470 16,900 2,478 Climbing FlightAware UK
Thu 08:19:35 AM 48.6690 1.8450 267° West 425 489 17,500 2,067 Climbing FlightAware ADS-B
Thu 08:20:49 AM 48.6899 1.6237 267° West 430 495 20,000 2,016 Climbing FlightAware UK
Thu 08:21:43 AM 48.7060 1.4550 267° West 454 522 21,800 1,938 Climbing FlightAware ADS-B
Thu 08:22:25 AM 48.7190 1.3260 279° West 461 531 23,100 1,714 Climbing FlightAware ADS-B
Thu 08:23:07 AM 48.7314 1.1876 279° West 458 527 24,200 1,636 Climbing FlightAware UK
Thu 08:23:09 AM 48.7320 1.1820 279° West 470 541 24,300 1,636 Climbing FlightAware ADS-B
Thu 08:24:13 AM 48.7514 0.9710 279° West 470 541 26,000 1,576 Climbing FlightAware UK
Thu 08:25:07 AM 48.7673 0.7906 278° West 480 552 27,400 1,315 Climbing FlightAware UK
Thu 08:25:26 AM 48.7700 0.7650 278° West 487 560 27,600 600 Climbing FlightAware ADS-B
Thu 08:26:07 AM 48.7840 0.5870 277° West 492 566 28,000 289 Climbing FlightAware ADS-B
Thu 08:26:49 AM 48.7760 0.4390 265° West 494 568 28,000  Level FlightAware ADS-B
Thu 08:27:24 AM 48.7690 0.3220 265° West 495 570 28,000  Level FlightAware ADS-B
Thu 08:28:07 AM 48.7620 0.1720 266° West 496 571 28,000  Level FlightAware ADS-B
Thu 08:29:04 AM 48.7540 -0.0270 267° West 497 572 28,000  Level FlightAware ADS-B
Thu 08:30:00 AM 48.7457 -0.2199 267° West 482 555 28,000  Level FlightAware UK
Thu 08:30:00 AM 48.7460 -0.2210 267° West 498 573 28,000  Level FlightAware ADS-B
Thu 08:30:30 AM 48.7411 -0.3244 267° West 484 557 28,000  Level FlightAware UK
Thu 08:30:38 AM 48.7390 -0.3520 267° West 499 574 28,000  Level FlightAware ADS-B
Thu 08:31:24 AM 48.7283 -0.5114 267° West 482 555 28,000  Level FlightAware UK
Thu 08:31:24 AM 48.7290 -0.5150 267° West 499 574 28,000  Level FlightAware ADS-B
Thu 08:32:04 AM 48.7200 -0.6480 264° West 499 574 28,000  Level FlightAware ADS-B
Thu 08:32:41 AM 48.7120 -0.7700 264° West 501 577 28,000 701 Level FlightAware ADS-B
Thu 08:33:21 AM 48.7020 -0.9030 264° West 508 585 28,900 1,350 Climbing FlightAware ADS-B
Thu 08:34:01 AM 48.6790 -1.0580 257° West 513 590 29,800 1,425 Climbing FlightAware ADS-B
Thu 08:34:41 AM 48.6510 -1.1950 253° West 513 590 30,800 1,575 Climbing FlightAware ADS-B
Thu 08:35:21 AM 48.6230 -1.3290 253° West 508 585 31,900 857 Climbing FlightAware ADS-B
Thu 08:36:05 AM 48.5913 -1.4812 253° West 490 564 32,000 122 Climbing FlightAware UK
Thu 08:36:10 AM 48.5890 -1.4970 253° West 508 585 32,000  Level FlightAware ADS-B
Thu 08:36:50 AM 48.5600 -1.6330 252° West 508 585 32,000  Level FlightAware ADS-B
Thu 08:37:26 AM 48.5350 -1.7540 253° West 510 587 32,000  Level FlightAware ADS-B
Thu 08:38:10 AM 48.5030 -1.9030 252° West 507 583 32,000  Level FlightAware ADS-B
Thu 08:38:50 AM 48.4740 -2.0370 252° West 506 582 32,000  Level FlightAware ADS-B
Thu 08:39:25 AM 48.4490 -2.1520 252° West 507 583 32,000  Level FlightAware ADS-B
Thu 08:40:28 AM 48.4020 -2.3675 252° West 490 564 32,000  Level FlightAware UK
Thu 08:41:05 AM 48.3850 -2.4470 252° West 508 585 32,000  Level FlightAware ADS-B
Thu 08:41:40 AM 48.3590 -2.5660 252° West 507 583 32,000  Level FlightAware ADS-B
Thu 08:41:46 AM 48.3450 -2.6273 252° West 490 564 32,000  Level FlightAware UK
Thu 08:42:28 AM 48.3140 -2.7677 252° West 490 564 32,000  Level FlightAware UK
Thu 08:42:31 AM 48.3130 -2.7760 252° West 506 582 32,000  Level FlightAware ADS-B
Thu 08:43:22 AM 48.2740 -2.9470 252° West 490 564 32,000  Level FlightAware UK
Thu 08:44:45 AM 48.2250 -3.1650 252° West 506 582 32,000  Level FlightAware ADS-B
Thu 08:45:31 AM 48.1780 -3.3720 251° West 505 581 32,000  Level FlightAware ADS-B
Thu 08:46:13 AM 48.1470 -3.5090 251° West 504 580 32,000  Level FlightAware ADS-B
Thu 08:46:53 AM 48.1160 -3.6430 251° West 502 578 32,000  Level FlightAware ADS-B
Thu 08:47:47 AM 48.0750 -3.8190 251° West 502 578 32,000  Level FlightAware ADS-B
Thu 08:48:31 AM 48.0410 -3.9650 251° West 501 577 32,000  Level FlightAware ADS-B
Thu 08:49:13 AM 48.0080 -4.1000 250° West 501 577 32,000  Level FlightAware ADS-B
Thu 08:49:57 AM 47.9750 -4.2390 251° West 501 577 32,000  Level FlightAware ADS-B
Thu 08:50:33 AM 47.9470 -4.3600 251° West 501 577 32,000  Level FlightAware ADS-B
Thu 08:51:17 AM 47.9130 -4.5010 250° West 502 578 32,000  Level FlightAware ADS-B
Thu 08:52:01 AM 47.8780 -4.6460 250° West 503 579 32,000  Level FlightAware ADS-B
Thu 08:52:45 AM 47.8420 -4.7900 250° West 503 579 32,000  Level FlightAware ADS-B
Thu 08:53:24 AM 47.8120 -4.9130 250° West 502 578 32,000  Level FlightAware ADS-B
Thu 08:54:00 AM 47.7870 -5.0170 250° West 502 578 32,000  Level FlightAware ADS-B
Thu 08:55:12 AM 47.7270 -5.2580 250° West 504 580 32,000  Level FlightAware ADS-B
Thu 08:55:56 AM 47.6950 -5.3850 250° West 504 580 32,000  Level FlightAware ADS-B
Thu 08:56:41 AM 47.6620 -5.5160 250° West 505 581 32,000  Level FlightAware ADS-B
Thu 08:57:23 AM 47.6290 -5.6460 249° West 505 581 32,000  Level FlightAware ADS-B
Thu 08:58:01 AM 47.5900 -5.8000 249° West 504 580 32,000  Level FlightAware ADS-B
Thu 08:58:51 AM 47.5510 -5.9510 249° West 505 581 32,000  Level FlightAware ADS-B
Thu 08:59:49 AM 47.4990 -6.1530 249° West 506 582 32,000  Level FlightAware ADS-B
Thu 09:01:25 AM 47.4320 -6.4110 249° West 507 583 32,000  Level FlightAware ADS-B
Thu 09:02:09 AM 47.3820 -6.5990 249° West 509 586 32,000  Level FlightAware ADS-B
Thu 09:02:49 AM 47.3520 -6.7090 248° West 509 586 32,000  Level FlightAware ADS-B
Thu 09:03:33 AM 47.3120 -6.8630 249° West 510 587 32,000  Level FlightAware ADS-B
Thu 09:05:03 AM 47.2430 -7.1150 248° West 510 587 32,000  Level FlightAware ADS-B
Thu 09:05:49 AM 47.1910 -7.3100 249° West 511 588 32,000  Level FlightAware ADS-B
Thu 09:06:27 AM 47.1640 -7.4110 249° West 511 588 32,000  Level FlightAware ADS-B
Thu 09:07:07 AM 47.1330 -7.5200 247° West 511 588 32,000  Level FlightAware ADS-B
Thu 09:07:55 AM 47.0970 -7.6520 248° West 511 588 32,000  Level FlightAware ADS-B
Thu 09:08:31 AM 47.0700 -7.7500 248° West 511 588 32,000  Level FlightAware ADS-B
Thu 09:09:19 AM 47.0340 -7.8810 248° West 511 588 32,000  Level FlightAware ADS-B
Thu 09:10:31 AM 47.0500 -8.2250 274° West 507 583 32,000  Level FlightAware ADS-B
Thu 09:12:17 AM 47.0210 -8.5350 262° West 506 582 32,000  Level FlightAware ADS-B
Thu 09:13:39 AM 46.9980 -8.7720 262° West 506 582 32,000  Level FlightAware ADS-B
Thu 09:14:39 AM 46.9820 -8.9450 262° West 506 582 32,000  Level FlightAware ADS-B
Thu 09:15:16 AM 46.9710 -9.0520 261° West 506 582 32,000  Level FlightAware ADS-B
Thu 09:15:52 AM 46.9610 -9.1560 262° West 506 582 32,000  Level FlightAware ADS-B
Thu 09:16:28 AM 46.9510 -9.2600 262° West 506 582 32,000  Level FlightAware ADS-B
Thu 09:17:16 AM 46.9380 -9.3990 262° West 506 582 32,000  Level FlightAware ADS-B
Thu 09:17:52 AM 46.9280 -9.5030 262° West 506 582 32,000  Level FlightAware ADS-B
Thu 09:18:28 AM 46.9180 -9.6060 262° West 506 582 32,000  Level FlightAware ADS-B
Thu 09:19:17 AM 46.9040 -9.7480 262° West 506 582 32,000  Level FlightAware ADS-B
Thu 09:19:53 AM 46.8940 -9.8520 262° West 506 582 32,000  Level FlightAware ADS-B
Thu 09:20:41 AM 46.8810 -9.9900 262° West 506 582 32,000  Level FlightAware ADS-B
Thu 09:21:18 AM 46.8710 -10.0970 262° West 506 582 32,000 10 Level FlightAware ADS-B
Thu 09:24:00 AM 46.7494 -10.5808 250° West  Level Estimated
Thu 09:25:00 AM 46.7039 -10.7595 250° West  Level Estimated
Thu 09:26:00 AM 46.6580 -10.9378 250° West  Level Estimated
Thu 09:27:00 AM 46.6119 -11.1159 249° West  Level Estimated
Thu 09:28:00 AM 46.5656 -11.2936 249° West  Level Estimated
Thu 09:29:00 AM 46.5189 -11.4710 249° West  Level Estimated
Thu 09:30:00 AM 46.4720 -11.6482 249° West  Level Estimated
Thu 09:31:00 AM 46.4248 -11.8250 249° West  Level Estimated
Thu 09:32:00 AM 46.3773 -12.0015 249° West  Level Estimated
Thu 09:33:00 AM 46.3296 -12.1777 249° West  Level Estimated
Thu 09:34:00 AM 46.2816 -12.3536 249° West  Level Estimated
Thu 09:35:00 AM 46.2333 -12.5292 248° West  Level Estimated
Thu 09:36:00 AM 46.1847 -12.7045 248° West  Level Estimated
Thu 09:37:00 AM 46.1359 -12.8794 248° West  Level Estimated
Thu 09:38:00 AM 46.0868 -13.0541 248° West  Level Estimated
Thu 09:39:00 AM 46.0375 -13.2285 248° West  Level Estimated
Thu 09:40:00 AM 45.9878 -13.4025 248° West  Level Estimated
Thu 09:41:00 AM 45.9380 -13.5762 248° West  Level Estimated
Thu 09:42:00 AM 45.8878 -13.7496 247° West  Level Estimated
Thu 09:43:00 AM 45.8374 -13.9227 247° West  Level Estimated
Thu 09:44:00 AM 45.7868 -14.0955 247° West  Level Estimated
Thu 09:45:00 AM 45.7358 -14.2680 247° West  Level Estimated
Thu 09:46:00 AM 45.6847 -14.4401 247° West  Level Estimated
Thu 09:47:00 AM 45.6332 -14.6120 247° West  Level Estimated
Thu 09:48:00 AM 45.5815 -14.7835 247° West  Level Estimated
Thu 09:49:00 AM 45.5296 -14.9547 247° West  Level Estimated
Thu 09:50:00 AM 45.4774 -15.1256 247° West  Level Estimated
Thu 09:51:00 AM 45.4249 -15.2962 246° West  Level Estimated
Thu 09:52:00 AM 45.3722 -15.4664 246° West  Level Estimated
Thu 09:53:00 AM 45.3192 -15.6363 246° West  Level Estimated
Thu 09:54:00 AM 45.2660 -15.8060 246° West  Level Estimated
Thu 09:55:00 AM 45.2125 -15.9753 246° West  Level Estimated
Thu 09:56:00 AM 45.1588 -16.1442 246° West  Level Estimated
Thu 09:57:00 AM 45.1048 -16.3129 246° West  Level Estimated
Thu 09:58:00 AM 45.0506 -16.4812 246° West  Level Estimated
Thu 09:59:00 AM 44.9961 -16.6493 245° Southwest  Level Estimated
Thu 10:00:00 AM 44.9414 -16.8169 245° Southwest  Level Estimated
Thu 10:01:00 AM 44.8865 -16.9843 245° Southwest  Level Estimated
Thu 10:02:00 AM 44.8313 -17.1514 245° Southwest  Level Estimated
Thu 10:03:00 AM 44.7758 -17.3181 245° Southwest  Level Estimated
Thu 10:04:00 AM 44.7201 -17.4846 245° Southwest  Level Estimated
Thu 10:05:00 AM 44.6642 -17.6507 245° Southwest  Level Estimated
Thu 10:06:00 AM 44.6080 -17.8164 245° Southwest  Level Estimated
Thu 10:07:00 AM 44.5516 -17.9819 244° Southwest  Level Estimated
Thu 10:08:00 AM 44.4950 -18.1470 244° Southwest  Level Estimated
Thu 10:09:00 AM 44.4381 -18.3118 244° Southwest  Level Estimated
Thu 10:10:00 AM 44.3810 -18.4763 244° Southwest  Level Estimated
Thu 10:11:00 AM 44.3236 -18.6405 244° Southwest  Level Estimated
Thu 10:12:00 AM 44.2660 -18.8044 244° Southwest  Level Estimated
Thu 10:13:00 AM 44.2082 -18.9679 244° Southwest  Level Estimated
Thu 10:14:00 AM 44.1502 -19.1311 244° Southwest  Level Estimated
Thu 10:15:00 AM 44.0919 -19.2940 244° Southwest  Level Estimated
Thu 10:16:00 AM 44.0334 -19.4566 243° Southwest  Level Estimated
Thu 10:17:00 AM 43.9746 -19.6188 243° Southwest  Level Estimated
Thu 10:18:00 AM 43.9156 -19.7807 243° Southwest  Level Estimated
Thu 10:19:00 AM 43.8564 -19.9423 243° Southwest  Level Estimated
Thu 10:20:00 AM 43.7970 -20.1036 243° Southwest  Level Estimated
Thu 10:21:00 AM 43.7373 -20.2646 243° Southwest  Level Estimated
Thu 10:22:00 AM 43.6774 -20.4252 243° Southwest  Level Estimated
Thu 10:23:00 AM 43.6173 -20.5855 243° Southwest  Level Estimated
Thu 10:24:00 AM 43.5570 -20.7455 243° Southwest  Level Estimated
Thu 10:25:00 AM 43.4964 -20.9052 242° Southwest  Level Estimated
Thu 10:26:00 AM 43.4357 -21.0646 242° Southwest  Level Estimated
Thu 10:27:00 AM 43.3747 -21.2236 242° Southwest  Level Estimated
Thu 10:28:00 AM 43.3134 -21.3823 242° Southwest  Level Estimated
Thu 10:29:00 AM 43.2520 -21.5407 242° Southwest  Level Estimated
Thu 10:30:00 AM 43.1903 -21.6988 242° Southwest  Level Estimated
Thu 10:31:00 AM 43.1285 -21.8566 242° Southwest  Level Estimated
Thu 10:32:00 AM 43.0664 -22.0140 242° Southwest  Level Estimated
Thu 10:33:00 AM 43.0041 -22.1711 242° Southwest  Level Estimated
Thu 10:34:00 AM 42.9416 -22.3279 241° Southwest  Level Estimated
Thu 10:35:00 AM 42.8788 -22.4844 241° Southwest  Level Estimated
Thu 10:36:00 AM 42.8159 -22.6406 241° Southwest  Level Estimated
Thu 10:37:00 AM 42.7527 -22.7964 241° Southwest  Level Estimated
Thu 10:38:00 AM 42.6894 -22.9519 241° Southwest  Level Estimated
Thu 10:39:00 AM 42.6258 -23.1071 241° Southwest  Level Estimated
Thu 10:40:00 AM 42.5620 -23.2620 241° Southwest  Level Estimated
Thu 10:41:00 AM 42.4980 -23.4166 241° Southwest  Level Estimated
Thu 10:42:00 AM 42.4338 -23.5709 241° Southwest  Level Estimated
Thu 10:43:00 AM 42.3694 -23.7248 241° Southwest  Level Estimated
Thu 10:44:00 AM 42.3048 -23.8784 240° Southwest  Level Estimated
Thu 10:45:00 AM 42.2400 -24.0317 240° Southwest  Level Estimated
Thu 10:46:00 AM 42.1749 -24.1847 240° Southwest  Level Estimated
Thu 10:47:00 AM 42.1097 -24.3374 240° Southwest  Level Estimated
Thu 10:48:00 AM 42.0443 -24.4898 240° Southwest  Level Estimated
Thu 10:49:00 AM 41.9787 -24.6418 240° Southwest  Level Estimated
Thu 10:50:00 AM 41.9128 -24.7936 240° Southwest  Level Estimated
Thu 10:51:00 AM 41.8468 -24.9450 240° Southwest  Level Estimated
Thu 10:52:00 AM 41.7806 -25.0961 240° Southwest  Level Estimated
Thu 10:53:00 AM 41.7141 -25.2469 239° Southwest  Level Estimated
Thu 10:54:00 AM 41.6475 -25.3974 239° Southwest  Level Estimated
Thu 10:55:00 AM 41.5807 -25.5476 239° Southwest  Level Estimated
Thu 10:56:00 AM 41.5137 -25.6974 239° Southwest  Level Estimated
Thu 10:57:00 AM 41.4465 -25.8470 239° Southwest  Level Estimated
Thu 10:58:00 AM 41.3791 -25.9963 239° Southwest  Level Estimated
Thu 10:59:00 AM 41.3115 -26.1452 239° Southwest  Level Estimated
Thu 11:00:00 AM 41.2437 -26.2938 239° Southwest  Level Estimated
Thu 11:01:00 AM 41.1758 -26.4421 239° Southwest  Level Estimated
Thu 11:02:00 AM 41.1076 -26.5902 239° Southwest  Level Estimated
Thu 11:03:00 AM 41.0392 -26.7379 239° Southwest  Level Estimated
Thu 11:04:00 AM 40.9707 -26.8853 238° Southwest  Level Estimated
Thu 11:05:00 AM 40.9020 -27.0323 238° Southwest  Level Estimated
Thu 11:06:00 AM 40.8331 -27.1791 238° Southwest  Level Estimated
Thu 11:07:00 AM 40.7640 -27.3256 238° Southwest  Level Estimated
Thu 11:08:00 AM 40.6947 -27.4718 238° Southwest  Level Estimated
Thu 11:09:00 AM 40.6252 -27.6176 238° Southwest  Level Estimated
Thu 11:10:00 AM 40.5556 -27.7632 238° Southwest  Level Estimated
Thu 11:11:00 AM 40.4857 -27.9085 238° Southwest  Level Estimated
Thu 11:12:00 AM 40.4157 -28.0534 238° Southwest  Level Estimated
Thu 11:13:00 AM 40.3455 -28.1981 238° Southwest  Level Estimated
Thu 11:14:00 AM 40.2751 -28.3424 237° Southwest  Level Estimated
Thu 11:15:00 AM 40.2046 -28.4865 237° Southwest  Level Estimated
Thu 11:16:00 AM 40.1338 -28.6303 237° Southwest  Level Estimated
Thu 11:17:00 AM 40.0629 -28.7737 237° Southwest  Level Estimated
Thu 11:18:00 AM 39.9918 -28.9169 237° Southwest  Level Estimated
Thu 11:19:00 AM 39.9206 -29.0597 237° Southwest  Level Estimated
Thu 11:20:00 AM 39.8491 -29.2023 237° Southwest  Level Estimated
Thu 11:21:00 AM 39.7775 -29.3446 237° Southwest  Level Estimated
Thu 11:22:00 AM 39.7057 -29.4865 237° Southwest  Level Estimated
Thu 11:23:00 AM 39.6338 -29.6282 237° Southwest  Level Estimated
Thu 11:24:00 AM 39.5616 -29.7696 237° Southwest  Level Estimated
Thu 11:25:00 AM 39.4893 -29.9107 236° Southwest  Level Estimated
Thu 11:26:00 AM 39.4169 -30.0515 236° Southwest  Level Estimated
Thu 11:27:00 AM 39.3442 -30.1920 236° Southwest  Level Estimated
Thu 11:28:00 AM 39.2714 -30.3322 236° Southwest  Level Estimated
Thu 11:29:00 AM 39.1984 -30.4721 236° Southwest  Level Estimated
Thu 11:30:00 AM 39.1253 -30.6117 236° Southwest  Level Estimated
Thu 11:31:00 AM 39.0520 -30.7511 236° Southwest  Level Estimated
Thu 11:32:00 AM 38.9785 -30.8901 236° Southwest  Level Estimated
Thu 11:33:00 AM 38.9049 -31.0289 236° Southwest  Level Estimated
Thu 11:34:00 AM 38.8311 -31.1674 236° Southwest  Level Estimated
Thu 11:35:00 AM 38.7571 -31.3055 236° Southwest  Level Estimated
Thu 11:36:00 AM 38.6830 -31.4435 235° Southwest  Level Estimated
Thu 11:37:00 AM 38.6087 -31.5811 235° Southwest  Level Estimated
Thu 11:38:00 AM 38.5342 -31.7184 235° Southwest  Level Estimated
Thu 11:39:00 AM 38.4596 -31.8554 235° Southwest  Level Estimated
Thu 11:40:00 AM 38.3849 -31.9922 235° Southwest  Level Estimated
Thu 11:41:00 AM 38.3099 -32.1287 235° Southwest  Level Estimated
Thu 11:42:00 AM 38.2348 -32.2649 235° Southwest  Level Estimated
Thu 11:43:00 AM 38.1596 -32.4008 235° Southwest  Level Estimated
Thu 11:44:00 AM 38.0842 -32.5364 235° Southwest  Level Estimated
Thu 11:45:00 AM 38.0086 -32.6717 235° Southwest  Level Estimated
Thu 11:46:00 AM 37.9329 -32.8068 235° Southwest  Level Estimated
Thu 11:47:00 AM 37.8571 -32.9416 235° Southwest  Level Estimated
Thu 11:48:00 AM 37.7810 -33.0761 234° Southwest  Level Estimated
Thu 11:49:00 AM 37.7049 -33.2104 234° Southwest  Level Estimated
Thu 11:50:00 AM 37.6286 -33.3443 234° Southwest  Level Estimated
Thu 11:51:00 AM 37.5521 -33.4780 234° Southwest  Level Estimated
Thu 11:52:00 AM 37.4755 -33.6115 234° Southwest  Level Estimated
Thu 11:53:00 AM 37.3987 -33.7446 234° Southwest  Level Estimated
Thu 11:54:00 AM 37.3218 -33.8775 234° Southwest  Level Estimated
Thu 11:55:00 AM 37.2447 -34.0101 234° Southwest  Level Estimated
Thu 11:56:00 AM 37.1675 -34.1424 234° Southwest  Level Estimated
Thu 11:57:00 AM 37.0901 -34.2745 234° Southwest  Level Estimated
Thu 11:58:00 AM 37.0126 -34.4062 234° Southwest  Level Estimated
Thu 11:59:00 AM 36.9349 -34.5378 234° Southwest  Level Estimated
Thu 12:00:00 PM 36.8571 -34.6690 233° Southwest  Level Estimated
Thu 12:01:00 PM 36.7792 -34.8000 233° Southwest  Level Estimated
Thu 12:02:00 PM 36.7011 -34.9307 233° Southwest  Level Estimated
Thu 12:03:00 PM 36.6229 -35.0612 233° Southwest  Level Estimated
Thu 12:04:00 PM 36.5445 -35.1914 233° Southwest  Level Estimated
Thu 12:05:00 PM 36.4660 -35.3213 233° Southwest  Level Estimated
Thu 12:06:00 PM 36.3873 -35.4509 233° Southwest  Level Estimated
Thu 12:07:00 PM 36.3085 -35.5803 233° Southwest  Level Estimated
Thu 12:08:00 PM 36.2296 -35.7095 233° Southwest  Level Estimated
Thu 12:09:00 PM 36.1505 -35.8383 233° Southwest  Level Estimated
Thu 12:10:00 PM 36.0713 -35.9669 233° Southwest  Level Estimated
Thu 12:11:00 PM 35.9920 -36.0953 233° Southwest  Level Estimated
Thu 12:12:00 PM 35.9125 -36.2234 233° Southwest  Level Estimated
Thu 12:13:00 PM 35.8329 -36.3512 232° Southwest  Level Estimated
Thu 12:14:00 PM 35.7531 -36.4788 232° Southwest  Level Estimated
Thu 12:15:00 PM 35.6732 -36.6062 232° Southwest  Level Estimated
Thu 12:16:00 PM 35.5932 -36.7332 232° Southwest  Level Estimated
Thu 12:17:00 PM 35.5130 -36.8601 232° Southwest  Level Estimated
Thu 12:18:00 PM 35.4327 -36.9866 232° Southwest  Level Estimated
Thu 12:19:00 PM 35.3523 -37.1129 232° Southwest  Level Estimated
Thu 12:20:00 PM 35.2718 -37.2390 232° Southwest  Level Estimated
Thu 12:21:00 PM 35.1911 -37.3648 232° Southwest  Level Estimated
Thu 12:22:00 PM 35.1103 -37.4904 232° Southwest  Level Estimated
Thu 12:23:00 PM 35.0293 -37.6157 232° Southwest  Level Estimated
Thu 12:24:00 PM 34.9483 -37.7407 232° Southwest  Level Estimated
Thu 12:25:00 PM 34.8671 -37.8656 232° Southwest  Level Estimated
Thu 12:26:00 PM 34.7857 -37.9901 232° Southwest  Level Estimated
Thu 12:27:00 PM 34.7043 -38.1144 231° Southwest  Level Estimated
Thu 12:28:00 PM 34.6227 -38.2385 231° Southwest  Level Estimated
Thu 12:29:00 PM 34.5410 -38.3624 231° Southwest  Level Estimated
Thu 12:30:00 PM 34.4592 -38.4860 231° Southwest  Level Estimated
Thu 12:31:00 PM 34.3772 -38.6093 231° Southwest  Level Estimated
Thu 12:32:00 PM 34.2951 -38.7324 231° Southwest  Level Estimated
Thu 12:33:00 PM 34.2129 -38.8553 231° Southwest  Level Estimated
Thu 12:34:00 PM 34.1306 -38.9779 231° Southwest  Level Estimated
Thu 12:34:32 PM 35.0000 -40.0000 233° Southwest 487 560 34,000  Level New York Oceanic (ODAPS)
Thu 12:35:00 PM 34.0482 -39.1003 231° Southwest  Level Estimated
Thu 12:36:00 PM 33.9656 -39.2225 231° Southwest  Level Estimated
Thu 12:37:00 PM 33.8829 -39.3444 231° Southwest  Level Estimated
Thu 12:38:00 PM 33.8001 -39.4660 231° Southwest  Level Estimated
Thu 12:39:00 PM 33.7172 -39.5875 231° Southwest  Level Estimated
Thu 12:40:00 PM 34.5158 -40.7849 233° Southwest 487 560 34,000  Level FlightAware Transoceanic
Thu 12:41:00 PM 34.4347 -40.9149 233° Southwest 487 560 34,000  Level FlightAware Transoceanic
Thu 12:42:00 PM 34.3533 -41.0446 233° Southwest 487 560 34,000  Level FlightAware Transoceanic
Thu 12:43:00 PM 34.2719 -41.1740 233° Southwest 487 560 34,000  Level FlightAware Transoceanic
Thu 12:44:00 PM 34.1903 -41.3032 233° Southwest 487 560 34,000  Level FlightAware Transoceanic
Thu 12:45:00 PM 34.1086 -41.4321 233° Southwest 487 560 34,000  Level FlightAware Transoceanic
Thu 12:46:00 PM 34.0267 -41.5608 232° Southwest 487 560 34,000  Level FlightAware Transoceanic
Thu 12:47:00 PM 33.9447 -41.6892 232° Southwest 487 560 34,000 64 Level FlightAware Transoceanic
Thu 12:47:34 PM 33.9167 -41.7333 232° Southwest 483 556 34,100  Climbing New York Oceanic (ODAPS)
Thu 12:48:00 PM 33.8626 -41.8174 232° Southwest 487 560 34,000 -32 Descending FlightAware Transoceanic
Thu 12:50:44 PM 33.6375 -42.1665 232° Southwest 487 560 34,000  Level FlightAware Transoceanic
Thu 12:52:00 PM 33.5328 -42.3276 232° Southwest 487 560 34,000 44 Level FlightAware Transoceanic
Thu 12:53:00 PM 33.4241 -42.4944 232° Southwest 483 556 34,100 50 Climbing FlightAware Transoceanic
Thu 12:54:00 PM 33.3416 -42.6205 232° Southwest 483 556 34,100  Level FlightAware Transoceanic
Thu 12:55:00 PM 33.2589 -42.7462 232° Southwest 483 556 34,100  Level FlightAware Transoceanic
Thu 12:56:00 PM 33.1761 -42.8718 232° Southwest 483 556 34,100  Level FlightAware Transoceanic
Thu 12:57:00 PM 33.0932 -42.9971 232° Southwest 483 556 34,100  Level FlightAware Transoceanic
Thu 12:58:00 PM 33.0102 -43.1221 232° Southwest 483 556 34,100  Level FlightAware Transoceanic
Thu 12:59:00 PM 32.9270 -43.2469 232° Southwest 483 556 34,100  Level FlightAware Transoceanic
Thu 01:00:00 PM 32.8437 -43.3715 231° Southwest 483 556 34,100  Level FlightAware Transoceanic
Thu 01:01:00 PM 32.7603 -43.4959 231° Southwest 483 556 34,100 63 Level FlightAware Transoceanic
Thu 01:01:36 PM 32.7833 -43.4667 231° Southwest 484 557 34,200  Climbing New York Oceanic (ODAPS)
Thu 01:02:00 PM 32.6768 -43.6200 231° Southwest 483 556 34,100 -71 Descending FlightAware Transoceanic
Thu 01:03:00 PM 32.5931 -43.7439 231° Southwest 483 556 34,100  Level FlightAware Transoceanic
Thu 01:04:00 PM 32.5093 -43.8675 231° Southwest 483 556 34,100  Level FlightAware Transoceanic
Thu 01:05:00 PM 32.4254 -43.9910 231° Southwest 483 556 34,100  Level FlightAware Transoceanic
Thu 01:06:00 PM 32.3414 -44.1142 231° Southwest 483 556 34,100 164 Level FlightAware Transoceanic
Thu 01:06:13 PM 32.3833 -44.0500 231° Southwest 488 562 34,300 100 Climbing New York Oceanic (ODAPS)
Thu 01:07:00 PM 32.2779 -44.2114 231° Southwest 484 557 34,200  Descending FlightAware Transoceanic
Thu 01:07:50 PM 32.2500 -44.2500 231° Southwest 490 564 34,300  Climbing New York Oceanic (ODAPS)
Thu 01:08:00 PM 32.1933 -44.3348 231° Southwest 484 557 34,200 -86 Descending FlightAware Transoceanic
Thu 01:09:00 PM 32.1085 -44.4578 231° Southwest 484 557 34,200  Level FlightAware Transoceanic
Thu 01:10:00 PM 32.0236 -44.5807 231° Southwest 484 557 34,200  Level FlightAware Transoceanic
Thu 01:11:00 PM 31.9386 -44.7033 231° Southwest 484 557 34,200 50 Level FlightAware Transoceanic
Thu 01:12:00 PM 31.8720 -44.7927 231° Southwest 488 562 34,300 50 Climbing FlightAware Transoceanic
Thu 01:13:00 PM 31.7864 -44.9157 231° Southwest 488 562 34,300  Level FlightAware Transoceanic
Thu 01:14:00 PM 31.7329 -44.9965 231° Southwest 490 564 34,300  Level FlightAware Transoceanic
Thu 01:15:00 PM 31.6463 -45.1201 230° Southwest 490 564 34,300  Level FlightAware Transoceanic
Thu 01:16:00 PM 31.5596 -45.2435 230° Southwest 490 564 34,300  Level FlightAware Transoceanic
Thu 01:17:00 PM 31.4727 -45.3667 230° Southwest 490 564 34,300  Level FlightAware Transoceanic
Thu 01:18:00 PM 31.3858 -45.4896 230° Southwest 490 564 34,300  Level FlightAware Transoceanic
Thu 01:19:00 PM 31.2987 -45.6123 230° Southwest 490 564 34,300  Level FlightAware Transoceanic
Thu 01:20:00 PM 31.2115 -45.7347 230° Southwest 490 564 34,300  Level FlightAware Transoceanic
Thu 01:21:00 PM 31.1242 -45.8570 230° Southwest 490 564 34,300  Level FlightAware Transoceanic
Thu 01:22:00 PM 31.0368 -45.9790 230° Southwest 490 564 34,300  Level FlightAware Transoceanic
Thu 01:23:00 PM 30.9492 -46.1008 230° Southwest 490 564 34,300  Level FlightAware Transoceanic
Thu 01:24:00 PM 30.8616 -46.2223 230° Southwest 490 564 34,300  Level FlightAware Transoceanic
Thu 01:25:00 PM 30.7738 -46.3437 230° Southwest 490 564 34,300  Level FlightAware Transoceanic
Thu 01:26:00 PM 30.6859 -46.4648 230° Southwest 490 564 34,300  Level FlightAware Transoceanic
Thu 01:27:00 PM 30.5979 -46.5857 230° Southwest 490 564 34,300  Level FlightAware Transoceanic
Thu 01:28:00 PM 30.5098 -46.7064 230° Southwest 490 564 34,300 265 Level FlightAware Transoceanic
Thu 01:28:08 PM 30.4500 -46.7833 230° Southwest 498 573 34,600  Climbing New York Oceanic (ODAPS)
Thu 01:29:00 PM 30.4216 -46.8269 230° Southwest 490 564 34,300 -161 Descending FlightAware Transoceanic
Thu 01:30:00 PM 30.3333 -46.9471 230° Southwest 490 564 34,300  Level FlightAware Transoceanic
Thu 01:31:00 PM 30.2449 -47.0671 229° Southwest 490 564 34,300  Level FlightAware Transoceanic
Thu 01:32:00 PM 30.1563 -47.1870 229° Southwest 490 564 34,300  Level FlightAware Transoceanic
Thu 01:33:00 PM 30.0677 -47.3065 229° Southwest 490 564 34,300 150 Level FlightAware Transoceanic
Thu 01:34:00 PM 29.9123 -47.5116 229° Southwest 498 573 34,600 150 Climbing FlightAware Transoceanic
Thu 01:35:00 PM 29.8223 -47.6322 229° Southwest 498 573 34,600  Level FlightAware Transoceanic
Thu 01:36:00 PM 29.7322 -47.7526 229° Southwest 498 573 34,600  Level FlightAware Transoceanic
Thu 01:37:00 PM 29.6420 -47.8728 229° Southwest 498 573 34,600  Level FlightAware Transoceanic
Thu 01:38:00 PM 29.5516 -47.9927 229° Southwest 498 573 34,600  Level FlightAware Transoceanic
Thu 01:39:00 PM 29.4612 -48.1125 229° Southwest 498 573 34,600  Level FlightAware Transoceanic
Thu 01:40:00 PM 29.3706 -48.2320 229° Southwest 498 573 34,600  Level FlightAware Transoceanic
Thu 01:41:00 PM 29.2800 -48.3513 229° Southwest 498 573 34,600  Level FlightAware Transoceanic
Thu 01:42:00 PM 29.1892 -48.4704 229° Southwest 498 573 34,600  Level FlightAware Transoceanic
Thu 01:43:00 PM 29.0984 -48.5893 229° Southwest 498 573 34,600  Level FlightAware Transoceanic
Thu 01:44:00 PM 29.0074 -48.7080 229° Southwest 498 573 34,600  Level FlightAware Transoceanic
Thu 01:45:00 PM 28.9163 -48.8265 229° Southwest 498 573 34,600  Level FlightAware Transoceanic
Thu 01:46:00 PM 28.8251 -48.9448 229° Southwest 498 573 34,600  Level FlightAware Transoceanic
Thu 01:47:00 PM 28.7339 -49.0628 229° Southwest 498 573 34,600  Level FlightAware Transoceanic
Thu 01:48:00 PM 28.6425 -49.1807 228° Southwest 498 573 34,600 70 Level FlightAware Transoceanic
Thu 01:48:26 PM 28.6000 -49.2500 228° Southwest 499 574 34,700  Climbing New York Oceanic (ODAPS)
Thu 01:49:00 PM 28.5510 -49.2984 228° Southwest 498 573 34,600 -64 Descending FlightAware Transoceanic
Thu 01:50:00 PM 28.4594 -49.4158 228° Southwest 498 573 34,600  Level FlightAware Transoceanic
Thu 01:51:00 PM 28.3677 -49.5330 228° Southwest 498 573 34,600 82 Level FlightAware Transoceanic
Thu 01:51:13 PM 28.3500 -49.5500 229° Southwest 500 575 34,700  Climbing New York Oceanic (ODAPS)
Thu 01:52:00 PM 28.2759 -49.6501 228° Southwest 498 573 34,600 -56 Descending FlightAware Transoceanic
Thu 01:53:00 PM 28.1841 -49.7669 228° Southwest 498 573 34,600 50 Level FlightAware Transoceanic
Thu 01:54:00 PM 28.0860 -49.8934 228° Southwest 499 574 34,700 50 Climbing FlightAware Transoceanic
Thu 01:55:00 PM 28.0000 -50.0000 218° Southwest 499 574 34,700  Level FlightAware Transoceanic
Thu 01:56:00 PM 27.8925 -50.0950 218° Southwest 499 574 34,700 104 Level FlightAware Transoceanic
Thu 01:56:55 PM 27.8000 -50.1833 218° Southwest 489 563 34,900  Climbing New York Oceanic (ODAPS)
Thu 01:57:00 PM 27.7850 -50.1899 218° Southwest 500 575 34,700 -185 Descending FlightAware Transoceanic
Thu 01:58:00 PM 27.6774 -50.2845 218° Southwest 500 575 34,700  Level FlightAware Transoceanic
Thu 01:59:00 PM 27.5697 -50.3790 218° Southwest 500 575 34,700  Level FlightAware Transoceanic
Thu 02:00:00 PM 27.4620 -50.4733 218° Southwest 500 575 34,700  Level FlightAware Transoceanic
Thu 02:01:00 PM 27.3542 -50.5674 218° Southwest 500 575 34,700  Level FlightAware Transoceanic
Thu 02:02:00 PM 27.2464 -50.6613 218° Southwest 500 575 34,700 100 Level FlightAware Transoceanic
Thu 02:03:00 PM 27.1525 -50.7491 218° Southwest 489 563 34,900 100 Climbing FlightAware Transoceanic
Thu 02:04:00 PM 27.0443 -50.8427 218° Southwest 489 563 34,900  Level FlightAware Transoceanic
Thu 02:05:00 PM 26.9361 -50.9362 218° Southwest 489 563 34,900  Level FlightAware Transoceanic
Thu 02:06:00 PM 26.8279 -51.0294 218° Southwest 489 563 34,900  Level FlightAware Transoceanic
Thu 02:07:00 PM 26.7195 -51.1226 217° Southwest 489 563 34,900  Level FlightAware Transoceanic
Thu 02:08:00 PM 26.6112 -51.2155 217° Southwest 489 563 34,900 61 Level FlightAware Transoceanic
Thu 02:08:38 PM 26.5667 -51.2500 217° Southwest 492 566 35,000  Climbing New York Oceanic (ODAPS)
Thu 02:09:00 PM 26.5027 -51.3083 217° Southwest 489 563 34,900 -73 Descending FlightAware Transoceanic
Thu 02:10:00 PM 26.3942 -51.4008 217° Southwest 489 563 34,900  Level FlightAware Transoceanic
Thu 02:11:00 PM 26.2856 -51.4932 217° Southwest 489 563 34,900  Level FlightAware Transoceanic
Thu 02:12:00 PM 26.1770 -51.5855 217° Southwest 489 563 34,900  Level FlightAware Transoceanic
Thu 02:13:00 PM 26.0683 -51.6775 217° Southwest 489 563 34,900 50 Level FlightAware Transoceanic
Thu 02:14:00 PM 26.0196 -51.7155 217° Southwest 492 566 35,000 50 Climbing FlightAware Transoceanic
Thu 02:15:00 PM 25.9100 -51.8080 217° Southwest 492 566 35,000  Level FlightAware Transoceanic
Thu 02:16:00 PM 25.8003 -51.9004 217° Southwest 492 566 35,000  Level FlightAware Transoceanic
Thu 02:17:00 PM 25.6906 -51.9926 217° Southwest 492 566 35,000  Level FlightAware Transoceanic
Thu 02:18:00 PM 25.5808 -52.0847 217° Southwest 492 566 35,000  Level FlightAware Transoceanic
Thu 02:19:00 PM 25.4710 -52.1766 217° Southwest 492 566 35,000  Level FlightAware Transoceanic
Thu 02:20:00 PM 25.3611 -52.2683 217° Southwest 492 566 35,000  Level FlightAware Transoceanic
Thu 02:21:00 PM 25.2512 -52.3598 217° Southwest 492 566 35,000  Level FlightAware Transoceanic
Thu 02:22:00 PM 25.1411 -52.4512 217° Southwest 492 566 35,000  Level FlightAware Transoceanic
Thu 02:23:00 PM 25.0311 -52.5424 217° Southwest 492 566 35,000  Level FlightAware Transoceanic
Thu 02:24:00 PM 24.9210 -52.6335 217° Southwest 492 566 35,000  Level FlightAware Transoceanic
Thu 02:25:00 PM 24.8108 -52.7244 217° Southwest 492 566 35,000  Level FlightAware Transoceanic
Thu 02:26:00 PM 24.7006 -52.8151 217° Southwest 492 566 35,000  Level FlightAware Transoceanic
Thu 02:27:00 PM 24.5903 -52.9057 217° Southwest 492 566 35,000  Level FlightAware Transoceanic
Thu 02:28:00 PM 24.4800 -52.9961 217° Southwest 492 566 35,000 -508 Level FlightAware Transoceanic
Thu 02:28:58 PM 24.4000 -53.0667 217° Southwest 493 567 34,000  Descending New York Oceanic (ODAPS)
Thu 02:29:00 PM 24.3696 -53.0864 217° Southwest 492 566 35,000 968 Climbing FlightAware Transoceanic
Thu 02:30:00 PM 24.2592 -53.1765 217° Southwest 492 566 35,000  Level FlightAware Transoceanic
Thu 02:31:00 PM 24.1487 -53.2664 217° Southwest 492 566 35,000  Level FlightAware Transoceanic
Thu 02:32:00 PM 24.0381 -53.3562 217° Southwest 492 566 35,000  Level FlightAware Transoceanic
Thu 02:33:00 PM 23.9275 -53.4458 217° Southwest 492 566 35,000  Level FlightAware Transoceanic
Thu 02:34:00 PM 23.8169 -53.5353 216° Southwest 492 566 35,000 -500 Level FlightAware Transoceanic
Thu 02:35:00 PM 23.7334 -53.6072 216° Southwest 493 567 34,000 -500 Descending FlightAware Transoceanic
Thu 02:36:00 PM 23.6222 -53.6968 216° Southwest 493 567 34,000  Level FlightAware Transoceanic
Thu 02:37:00 PM 23.5108 -53.7861 216° Southwest 493 567 34,000  Level FlightAware Transoceanic
Thu 02:38:00 PM 23.3995 -53.8754 216° Southwest 493 567 34,000  Level FlightAware Transoceanic
Thu 02:39:00 PM 23.2880 -53.9645 216° Southwest 493 567 34,000  Level FlightAware Transoceanic
Thu 02:40:00 PM 23.1765 -54.0534 216° Southwest 493 567 34,000  Level FlightAware Transoceanic
Thu 02:41:00 PM 23.0650 -54.1422 216° Southwest 493 567 34,000  Level FlightAware Transoceanic
Thu 02:42:00 PM 22.9534 -54.2309 216° Southwest 493 567 34,000  Level FlightAware Transoceanic
Thu 02:43:00 PM 22.8418 -54.3194 216° Southwest 493 567 34,000  Level FlightAware Transoceanic
Thu 02:44:00 PM 22.7301 -54.4077 216° Southwest 493 567 34,000  Level FlightAware Transoceanic
Thu 02:45:00 PM 22.6184 -54.4959 216° Southwest 493 567 34,000  Level FlightAware Transoceanic
Thu 02:46:00 PM 22.5066 -54.5840 216° Southwest 493 567 34,000  Level FlightAware Transoceanic
Thu 02:47:00 PM 22.3948 -54.6720 216° Southwest 493 567 34,000  Level FlightAware Transoceanic
Thu 02:48:00 PM 22.2830 -54.7597 216° Southwest 493 567 34,000  Level FlightAware Transoceanic
Thu 02:49:00 PM 22.1710 -54.8474 216° Southwest 493 567 34,000  Level FlightAware Transoceanic
Thu 02:49:13 PM 22.1833 -54.8333 216° Southwest 492 566 34,000  Level New York Oceanic (ODAPS)
Thu 02:50:00 PM 22.0591 -54.9349 216° Southwest 493 567 34,000  Level FlightAware Transoceanic
Thu 02:51:00 PM 21.9471 -55.0223 216° Southwest 493 567 34,000  Level FlightAware Transoceanic
Thu 02:52:00 PM 21.8350 -55.1095 216° Southwest 493 567 34,000  Level FlightAware Transoceanic
Thu 02:53:00 PM 21.7229 -55.1966 216° Southwest 493 567 34,000  Level FlightAware Transoceanic
Thu 02:54:00 PM 21.6108 -55.2836 216° Southwest 493 567 34,000  Level FlightAware Transoceanic
Thu 02:55:00 PM 21.5267 -55.3449 216° Southwest 492 566 34,000  Level FlightAware Transoceanic
Thu 02:56:00 PM 21.4171 -55.4297 216° Southwest 492 566 34,000  Level FlightAware Transoceanic
Thu 02:57:00 PM 21.3074 -55.5144 216° Southwest 492 566 34,000  Level FlightAware Transoceanic
Thu 02:58:00 PM 21.1978 -55.5990 216° Southwest 492 566 34,000  Level FlightAware Transoceanic
Thu 02:59:00 PM 21.0881 -55.6834 216° Southwest 492 566 34,000  Level FlightAware Transoceanic
Thu 03:00:00 PM 20.9783 -55.7677 216° Southwest 492 566 34,000  Level FlightAware Transoceanic
Thu 03:01:00 PM 20.8685 -55.8519 216° Southwest 492 566 34,000  Level FlightAware Transoceanic
Thu 03:02:00 PM 20.7586 -55.9360 216° Southwest 492 566 34,000  Level FlightAware Transoceanic
Thu 03:03:00 PM 20.6488 -56.0199 216° Southwest 492 566 34,000  Level FlightAware Transoceanic
Thu 03:04:00 PM 20.5388 -56.1037 216° Southwest 492 566 34,000  Level FlightAware Transoceanic
Thu 03:05:00 PM 20.4289 -56.1874 215° Southwest 492 566 34,000  Level FlightAware Transoceanic
Thu 03:06:00 PM 20.3189 -56.2710 215° Southwest 492 566 34,000  Level FlightAware Transoceanic
Thu 03:07:00 PM 20.2088 -56.3545 215° Southwest 492 566 34,000  Level FlightAware Transoceanic
Thu 03:08:00 PM 20.0987 -56.4378 215° Southwest 492 566 34,000  Level FlightAware Transoceanic
Thu 03:09:00 PM 19.9886 -56.5210 215° Southwest 492 566 34,000  Level FlightAware Transoceanic
Thu 03:09:29 PM 19.9500 -56.5500 215° Southwest 491 565 34,000  Level New York Oceanic (ODAPS)
Thu 03:10:00 PM 19.8784 -56.6042 215° Southwest 492 566 34,000  Level FlightAware Transoceanic
Thu 03:11:00 PM 19.7682 -56.6871 215° Southwest 492 566 34,000  Level FlightAware Transoceanic
Thu 03:12:00 PM 19.6580 -56.7700 215° Southwest 492 566 34,000  Level FlightAware Transoceanic
Thu 03:13:00 PM 19.5477 -56.8528 215° Southwest 492 566 34,000  Level FlightAware Transoceanic
Thu 03:14:00 PM 19.4374 -56.9355 215° Southwest 492 566 34,000  Level FlightAware Transoceanic
Thu 03:15:00 PM 19.3270 -57.0180 215° Southwest 492 566 34,000  Level FlightAware Transoceanic
Thu 03:16:00 PM 19.1930 -57.1179 215° Southwest 491 565 34,000  Level FlightAware Transoceanic
Thu 03:17:00 PM 19.0847 -57.1986 215° Southwest 491 565 34,000  Level FlightAware Transoceanic
Thu 03:18:00 PM 18.9764 -57.2792 215° Southwest 491 565 34,000  Level FlightAware Transoceanic
Thu 03:19:00 PM 18.8681 -57.3597 215° Southwest 491 565 34,000  Level FlightAware Transoceanic
Thu 03:20:00 PM 18.7597 -57.4401 215° Southwest 491 565 34,000  Level FlightAware Transoceanic
Thu 03:21:00 PM 18.6512 -57.5204 215° Southwest 491 565 34,000  Level FlightAware Transoceanic
Thu 03:22:00 PM 18.5428 -57.6006 215° Southwest 491 565 34,000  Level FlightAware Transoceanic
Thu 03:23:00 PM 18.4343 -57.6807 215° Southwest 491 565 34,000  Level FlightAware Transoceanic
Thu 03:24:00 PM 18.3258 -57.7607 215° Southwest 491 565 34,000  Level FlightAware Transoceanic
Thu 03:25:00 PM 18.2172 -57.8405 215° Southwest 491 565 34,000  Level FlightAware Transoceanic
Thu 03:26:00 PM 18.1086 -57.9203 215° Southwest 491 565 34,000  Level FlightAware Transoceanic
Thu 03:27:00 PM 18.0000 -58.0000 221° Southwest 491 565 34,000  Level FlightAware Transoceanic
Thu 03:28:00 PM 17.8937 -58.0966 221° Southwest 491 565 34,000  Level FlightAware Transoceanic
Thu 03:29:00 PM 17.7873 -58.1931 221° Southwest 491 565 34,000  Level FlightAware Transoceanic
Thu 03:30:00 PM 17.6808 -58.2895 221° Southwest 491 565 34,000  Level FlightAware Transoceanic
Thu 03:31:00 PM 17.5743 -58.3858 221° Southwest 491 565 34,000  Level FlightAware Transoceanic
Thu 03:32:00 PM 17.4678 -58.4819 221° Southwest 491 565 34,000  Level FlightAware Transoceanic
Thu 03:33:00 PM 17.3612 -58.5780 221° Southwest 491 565 34,000  Level FlightAware Transoceanic
Thu 03:34:00 PM 17.2546 -58.6739 221° Southwest 491 565 34,000  Level FlightAware Transoceanic
Thu 03:35:00 PM 17.1479 -58.7697 221° Southwest 491 565 34,000  Level FlightAware Transoceanic
Thu 03:35:22 PM 17.1220 -58.7930 221° Southwest 496 571 34,000  Level FlightAware ADS-B
Thu 03:36:13 PM 17.0270 -58.8780 221° Southwest 498 573 34,000  Level FlightAware ADS-B
Thu 03:36:55 PM 16.9500 -58.9470 221° Southwest 499 574 34,000  Level FlightAware ADS-B
Thu 03:37:34 PM 16.8820 -59.0070 220° Southwest 498 573 34,000  Level FlightAware ADS-B
Thu 03:38:31 PM 16.7830 -59.0960 221° Southwest 498 573 34,000  Level FlightAware ADS-B
Thu 03:39:14 PM 16.7030 -59.1670 220° Southwest 499 574 34,000  Level FlightAware ADS-B
Thu 03:39:55 PM 16.6360 -59.2270 221° Southwest 500 575 34,000  Level FlightAware ADS-B
Thu 03:40:29 PM 16.5760 -59.2800 220° Southwest 500 575 34,000  Level FlightAware ADS-B
Thu 03:41:11 PM 16.5030 -59.3460 221° Southwest 502 578 34,000  Level FlightAware ADS-B
Thu 03:41:58 PM 16.4190 -59.4200 220° Southwest 502 578 34,000  Level FlightAware ADS-B
Thu 03:42:38 PM 16.3470 -59.4840 220° Southwest 504 580 34,000  Level FlightAware ADS-B
Thu 03:43:23 PM 16.2730 -59.5490 220° Southwest 505 581 34,000  Level FlightAware ADS-B
Thu 03:43:59 PM 16.2040 -59.6100 220° Southwest 504 580 34,000 -304 Level FlightAware ADS-B
Thu 03:44:42 PM 16.1250 -59.6800 220° Southwest 500 575 33,600 -1,720 Descending FlightAware ADS-B
Thu 03:46:43 PM 15.9500 -59.8350 220° Southwest 489 563 29,300 -2,346 Descending FlightAware ADS-B
Thu 03:47:41 PM 15.8240 -59.9460 220° Southwest 475 547 26,600 -2,606 Descending FlightAware ADS-B
Thu 03:48:22 PM 15.7540 -60.0070 220° Southwest 467 537 25,000 -2,541 Descending FlightAware ADS-B
Thu 03:49:06 PM 15.6750 -60.0760 220° Southwest 464 534 23,000 -2,313 Descending FlightAware ADS-B
Thu 03:49:45 PM 15.6150 -60.1300 221° Southwest 456 525 21,800 -1,974 Descending FlightAware ADS-B
Thu 03:50:22 PM 15.5550 -60.1820 220° Southwest 448 516 20,500 -2,222 Descending FlightAware ADS-B
Thu 03:51:06 PM 15.4880 -60.2410 220° Southwest 446 513 18,800 -2,188 Descending FlightAware ADS-B
Thu 03:51:47 PM 15.4270 -60.2940 220° Southwest 442 509 17,400 -2,169 Descending FlightAware ADS-B
Thu 03:52:29 PM 15.3580 -60.3550 220° Southwest 434 499 15,800 -2,024 Descending FlightAware ADS-B
Thu 03:53:10 PM 15.2950 -60.4100 220° Southwest 420 483 14,600 -1,857 Descending FlightAware ADS-B
Thu 03:53:53 PM 15.2300 -60.4660 220° Southwest 410 472 13,200 -1,906 Descending FlightAware ADS-B
Thu 03:54:35 PM 15.1730 -60.5170 221° Southwest 404 465 11,900 -1,902 Descending FlightAware ADS-B
Thu 03:55:15 PM 15.1150 -60.5670 220° Southwest 395 455 10,600 -1,781 Descending FlightAware ADS-B
Thu 03:55:39 PM 15.0780 -60.5990 220° Southwest 387 445 10,000 -857 Descending FlightAware ADS-B
Thu 03:56:04 PM 15.0480 -60.6260 221° Southwest 365 420 9,900 -115 Descending FlightAware ADS-B
Thu 03:56:31 PM 15.0190 -60.6530 222° Southwest 342 394 9,900 -340 Level FlightAware ADS-B
Thu 03:56:57 PM 14.9860 -60.6840 222° Southwest 324 373 9,600 -732 Descending FlightAware ADS-B
Thu 03:57:12 PM 14.9700 -60.7000 224° Southwest 319 367 9,400 -1,200 Descending FlightAware ADS-B
Thu 03:57:42 PM 14.9380 -60.7300 222° Southwest 314 361 8,700 -1,143 Descending FlightAware ADS-B
Thu 03:58:15 PM 14.9050 -60.7580 219° Southwest 310 357 8,200 -1,119 Descending FlightAware ADS-B
Thu 03:58:41 PM 14.8730 -60.7850 219° Southwest 307 353 7,600 -1,347 Descending FlightAware ADS-B
Thu 03:59:04 PM 14.8480 -60.8060 219° Southwest 305 351 7,100 -1,393 Descending FlightAware ADS-B
Thu 03:59:37 PM 14.8050 -60.8400 217° Southwest 304 350 6,300 -1,220 Descending FlightAware ADS-B
Thu 04:00:03 PM 14.7830 -60.8570 217° Southwest 301 346 5,900 -1,019 Descending FlightAware ADS-B
Thu 04:00:30 PM 14.7510 -60.8830 218° Southwest 296 341 5,400 -1,345 Descending FlightAware ADS-B
Thu 04:01:01 PM 14.7170 -60.9110 219° Southwest 296 341 4,600 -1,424 Descending FlightAware ADS-B
Thu 04:01:29 PM 14.6870 -60.9360 219° Southwest 292 336 4,000 -1,418 Descending FlightAware ADS-B
Thu 04:01:56 PM 14.6450 -60.9720 220° Southwest 280 322 3,300 -1,053 Descending FlightAware ADS-B
Thu 04:02:26 PM 14.6160 -60.9970 220° Southwest 266 306 3,000 -450 Descending FlightAware ADS-B
Thu 04:02:36 PM 14.6100 -61.0030 224° Southwest 260 299 3,000 -150 Level FlightAware ADS-B
Thu 04:03:06 PM 14.5840 -61.0320 227° Southwest 251 289 2,900 -600 Descending FlightAware ADS-B
Thu 04:03:16 PM 14.5770 -61.0420 234° Southwest 254 292 2,600 -1,350 Descending FlightAware ADS-B
Thu 04:03:46 PM 14.5570 -61.0700 234° Southwest 240 276 2,000 -700 Descending FlightAware ADS-B
Thu 04:04:16 PM 14.5380 -61.0970 234° Southwest 232 267 1,900 -214 Descending FlightAware ADS-B
Thu 04:04:42 PM 14.5380 -61.1230 270° West 215 247 1,800 -130 Descending FlightAware ADS-B
Thu 04:05:02 PM 14.5550 -61.1290 341° North 187 215 1,800 188 Level FlightAware ADS-B
Thu 04:05:14 PM 14.5630 -61.1260 20° North 177 204 1,900 273 Climbing FlightAware ADS-B
Thu 04:05:24 PM 14.5680 -61.1220 38° Northeast 168 193 1,900 -682 Level FlightAware ADS-B
Thu 04:05:58 PM 14.5750 -61.0970 74° East 155 178 1,400 -814 Descending FlightAware ADS-B
Thu 04:06:23 PM 14.5780 -61.0790 80° East 137 158 1,100 -720 Descending FlightAware ADS-B
Thu 04:06:48 PM 14.5810 -61.0650 78° East 134 154 800 -720 Descending FlightAware ADS-B
Thu 04:07:55 PM 14.5890 -61.0180 80° East 150 173 -716 Descending FlightAware ADS-B
Thu 04:08:33 PM 14.5920 -61.0000 80° East 23 26  Level FlightAware ADS-B
Thu 04:09:18 PM 14.5930 -61.0000 360° North 5 6  Level FlightAware ADS-B
Thu 04:09:59 PM 14.5940 -61.0010 316° Northwest 9 10  Level FlightAware ADS-B
Thu 04:10:30 PM 14.5940 -61.0020 270° West 9 10  Level FlightAware ADS-B
Thu 04:10:37 PM 14.5950 -61.0020 360° North 6 7  Level FlightAware ADS-B
Thu 04:11:47 PM 14.5950 -61.0010 90° East  Level FlightAware ADS-B
Thu 04:14:00 PM 14.5910 -61.0032 136° Southeast  Level Estimated
Thu 04:15:00 PM 14.5910 -61.0032 136° Southeast  Level Estimated
Thu 04:16:00 PM 14.5910 -61.0032 136° Southeast  Level Estimated
Thu 04:17:00 PM 14.5910 -61.0032 136° Southeast  Level Estimated
Thu 04:18:00 PM 14.5910 -61.0032 136° Southeast  Level Estimated
Thu 04:19:00 PM 14.5910 -61.0032 136° Southeast  Level Estimated
Thu 04:20:00 PM 14.5910 -61.0032 136° Southeast  Level Estimated
Thu 04:21:00 PM 14.5910 -61.0032 136° Southeast  Level Estimated
Thu 04:22:00 PM 14.5910 -61.0032 136° Southeast  Level Estimated
Thu 04:23:00 PM 14.5910 -61.0032 136° Southeast  Level Estimated
Thu 04:24:00 PM 14.5910 -61.0032 136° Southeast  Level Estimated
Thu 04:25:00 PM 14.5910 -61.0032 136° Southeast  Level Estimated

Login

Don't have an account? Register now (free) for customized features, flight alerts, and more!